sensor_id;sensor_type;location;lat;lon;timestamp;P1;durP1;ratioP1;P2;durP2;ratioP2
49458;SDS011;35354;51.296;16.924;2023-05-10T00:00:20;15.27;;;9.80;;
49458;SDS011;35354;51.296;16.924;2023-05-10T00:02:47;13.85;;;9.07;;
49458;SDS011;35354;51.296;16.924;2023-05-10T00:05:13;12.52;;;8.63;;
49458;SDS011;35354;51.296;16.924;2023-05-10T00:07:38;11.10;;;8.50;;
49458;SDS011;35354;51.296;16.924;2023-05-10T00:10:03;17.65;;;9.77;;
49458;SDS011;35354;51.296;16.924;2023-05-10T00:12:29;15.43;;;8.40;;
49458;SDS011;35354;51.296;16.924;2023-05-10T00:14:55;13.75;;;8.90;;
49458;SDS011;35354;51.296;16.924;2023-05-10T00:17:20;14.25;;;9.13;;
49458;SDS011;35354;51.296;16.924;2023-05-10T00:19:45;11.50;;;7.35;;
49458;SDS011;35354;51.296;16.924;2023-05-10T00:22:10;14.15;;;9.05;;
49458;SDS011;35354;51.296;16.924;2023-05-10T00:24:36;12.48;;;8.20;;
49458;SDS011;35354;51.296;16.924;2023-05-10T00:27:01;13.82;;;9.07;;
49458;SDS011;35354;51.296;16.924;2023-05-10T00:29:28;13.73;;;9.02;;
49458;SDS011;35354;51.296;16.924;2023-05-10T00:31:54;14.05;;;9.05;;
49458;SDS011;35354;51.296;16.924;2023-05-10T00:34:19;16.00;;;9.82;;
49458;SDS011;35354;51.296;16.924;2023-05-10T00:36:45;12.07;;;8.30;;
49458;SDS011;35354;51.296;16.924;2023-05-10T00:39:10;13.32;;;8.00;;
49458;SDS011;35354;51.296;16.924;2023-05-10T00:41:36;15.80;;;8.73;;
49458;SDS011;35354;51.296;16.924;2023-05-10T00:44:01;10.90;;;8.13;;
49458;SDS011;35354;51.296;16.924;2023-05-10T00:46:27;12.75;;;8.10;;
49458;SDS011;35354;51.296;16.924;2023-05-10T00:48:53;12.77;;;8.38;;
49458;SDS011;35354;51.296;16.924;2023-05-10T00:51:18;15.07;;;8.50;;
49458;SDS011;35354;51.296;16.924;2023-05-10T00:53:47;18.13;;;8.30;;
49458;SDS011;35354;51.296;16.924;2023-05-10T00:56:14;12.27;;;8.63;;
49458;SDS011;35354;51.296;16.924;2023-05-10T00:58:40;14.05;;;9.63;;
49458;SDS011;35354;51.296;16.924;2023-05-10T01:01:06;17.13;;;10.07;;
49458;SDS011;35354;51.296;16.924;2023-05-10T01:03:32;18.88;;;10.10;;
49458;SDS011;35354;51.296;16.924;2023-05-10T01:05:58;14.68;;;9.60;;
49458;SDS011;35354;51.296;16.924;2023-05-10T01:08:24;13.00;;;9.00;;
49458;SDS011;35354;51.296;16.924;2023-05-10T01:10:50;14.48;;;9.45;;
49458;SDS011;35354;51.296;16.924;2023-05-10T01:13:18;15.80;;;8.63;;
49458;SDS011;35354;51.296;16.924;2023-05-10T01:15:55;14.80;;;8.75;;
49458;SDS011;35354;51.296;16.924;2023-05-10T01:18:21;12.15;;;8.48;;
49458;SDS011;35354;51.296;16.924;2023-05-10T01:20:47;13.25;;;8.57;;
49458;SDS011;35354;51.296;16.924;2023-05-10T01:23:30;12.52;;;8.60;;
49458;SDS011;35354;51.296;16.924;2023-05-10T01:26:24;12.23;;;8.65;;
49458;SDS011;35354;51.296;16.924;2023-05-10T01:34:42;16.42;;;9.82;;
49458;SDS011;35354;51.296;16.924;2023-05-10T01:37:31;12.10;;;9.20;;
49458;SDS011;35354;51.296;16.924;2023-05-10T01:42:47;15.77;;;8.88;;
49458;SDS011;35354;51.296;16.924;2023-05-10T01:45:29;14.35;;;8.73;;
49458;SDS011;35354;51.296;16.924;2023-05-10T01:48:06;12.18;;;8.73;;
49458;SDS011;35354;51.296;16.924;2023-05-10T01:50:34;17.50;;;9.75;;
49458;SDS011;35354;51.296;16.924;2023-05-10T01:53:01;17.38;;;8.75;;
49458;SDS011;35354;51.296;16.924;2023-05-10T01:55:32;15.25;;;8.35;;
49458;SDS011;35354;51.296;16.924;2023-05-10T01:58:02;14.13;;;8.75;;
49458;SDS011;35354;51.296;16.924;2023-05-10T02:00:31;16.73;;;9.38;;
49458;SDS011;35354;51.296;16.924;2023-05-10T02:02:58;13.63;;;8.55;;
49458;SDS011;35354;51.296;16.924;2023-05-10T02:05:26;14.55;;;8.80;;
49458;SDS011;35354;51.296;16.924;2023-05-10T02:07:55;13.65;;;9.23;;
49458;SDS011;35354;51.296;16.924;2023-05-10T02:10:21;15.25;;;9.18;;
49458;SDS011;35354;51.296;16.924;2023-05-10T02:12:47;12.40;;;9.07;;
49458;SDS011;35354;51.296;16.924;2023-05-10T02:15:15;16.05;;;9.23;;
49458;SDS011;35354;51.296;16.924;2023-05-10T02:17:48;10.55;;;8.30;;
49458;SDS011;35354;51.296;16.924;2023-05-10T02:20:14;11.23;;;8.70;;
49458;SDS011;35354;51.296;16.924;2023-05-10T02:22:41;14.75;;;8.57;;
49458;SDS011;35354;51.296;16.924;2023-05-10T02:25:09;13.32;;;8.32;;
49458;SDS011;35354;51.296;16.924;2023-05-10T02:27:38;13.13;;;8.20;;
49458;SDS011;35354;51.296;16.924;2023-05-10T02:30:05;15.13;;;8.52;;
49458;SDS011;35354;51.296;16.924;2023-05-10T02:32:32;13.05;;;8.68;;
49458;SDS011;35354;51.296;16.924;2023-05-10T02:34:59;11.52;;;7.82;;
49458;SDS011;35354;51.296;16.924;2023-05-10T02:37:27;13.32;;;8.65;;
49458;SDS011;35354;51.296;16.924;2023-05-10T02:39:54;10.13;;;7.75;;
49458;SDS011;35354;51.296;16.924;2023-05-10T02:42:23;10.80;;;8.23;;
49458;SDS011;35354;51.296;16.924;2023-05-10T02:44:52;10.15;;;8.05;;
49458;SDS011;35354;51.296;16.924;2023-05-10T02:47:20;11.10;;;7.85;;
49458;SDS011;35354;51.296;16.924;2023-05-10T02:49:46;11.57;;;7.93;;
49458;SDS011;35354;51.296;16.924;2023-05-10T02:52:12;11.90;;;8.02;;
49458;SDS011;35354;51.296;16.924;2023-05-10T02:54:45;11.63;;;7.78;;
49458;SDS011;35354;51.296;16.924;2023-05-10T02:57:15;17.80;;;11.10;;
49458;SDS011;35354;51.296;16.924;2023-05-10T02:59:43;12.82;;;9.00;;
49458;SDS011;35354;51.296;16.924;2023-05-10T03:02:09;12.48;;;8.18;;
49458;SDS011;35354;51.296;16.924;2023-05-10T03:04:36;11.80;;;7.88;;
49458;SDS011;35354;51.296;16.924;2023-05-10T03:07:01;9.57;;;7.70;;
49458;SDS011;35354;51.296;16.924;2023-05-10T03:09:27;11.95;;;7.75;;
49458;SDS011;35354;51.296;16.924;2023-05-10T03:12:01;12.38;;;7.85;;
49458;SDS011;35354;51.296;16.924;2023-05-10T03:17:39;13.43;;;7.93;;
49458;SDS011;35354;51.296;16.924;2023-05-10T03:20:07;12.18;;;7.47;;
49458;SDS011;35354;51.296;16.924;2023-05-10T03:22:37;11.00;;;7.85;;
49458;SDS011;35354;51.296;16.924;2023-05-10T03:25:06;13.55;;;8.18;;
49458;SDS011;35354;51.296;16.924;2023-05-10T03:27:34;11.35;;;8.10;;
49458;SDS011;35354;51.296;16.924;2023-05-10T03:30:01;10.77;;;7.60;;
49458;SDS011;35354;51.296;16.924;2023-05-10T03:32:28;13.13;;;7.40;;
49458;SDS011;35354;51.296;16.924;2023-05-10T03:34:55;13.73;;;7.88;;
49458;SDS011;35354;51.296;16.924;2023-05-10T03:37:20;11.55;;;8.05;;
49458;SDS011;35354;51.296;16.924;2023-05-10T03:39:46;15.23;;;8.93;;
49458;SDS011;35354;51.296;16.924;2023-05-10T03:42:11;10.50;;;7.55;;
49458;SDS011;35354;51.296;16.924;2023-05-10T03:44:37;10.60;;;8.18;;
49458;SDS011;35354;51.296;16.924;2023-05-10T03:47:05;14.80;;;8.02;;
49458;SDS011;35354;51.296;16.924;2023-05-10T03:49:31;11.45;;;8.38;;
49458;SDS011;35354;51.296;16.924;2023-05-10T03:51:56;12.13;;;7.68;;
49458;SDS011;35354;51.296;16.924;2023-05-10T03:54:21;12.32;;;7.80;;
49458;SDS011;35354;51.296;16.924;2023-05-10T03:56:47;13.13;;;8.00;;
49458;SDS011;35354;51.296;16.924;2023-05-10T03:59:13;13.27;;;7.88;;
49458;SDS011;35354;51.296;16.924;2023-05-10T04:01:38;11.60;;;7.75;;
49458;SDS011;35354;51.296;16.924;2023-05-10T04:04:03;14.85;;;8.27;;
49458;SDS011;35354;51.296;16.924;2023-05-10T04:06:29;10.05;;;7.53;;
49458;SDS011;35354;51.296;16.924;2023-05-10T04:08:54;15.15;;;11.70;;
49458;SDS011;35354;51.296;16.924;2023-05-10T04:11:20;11.52;;;7.93;;
49458;SDS011;35354;51.296;16.924;2023-05-10T04:13:46;10.25;;;8.07;;
49458;SDS011;35354;51.296;16.924;2023-05-10T04:16:12;10.85;;;7.25;;
49458;SDS011;35354;51.296;16.924;2023-05-10T04:18:37;13.23;;;7.90;;
49458;SDS011;35354;51.296;16.924;2023-05-10T04:21:03;12.18;;;7.85;;
49458;SDS011;35354;51.296;16.924;2023-05-10T04:23:28;13.00;;;9.23;;
49458;SDS011;35354;51.296;16.924;2023-05-10T04:25:58;11.82;;;8.50;;
49458;SDS011;35354;51.296;16.924;2023-05-10T04:28:25;12.27;;;8.38;;
49458;SDS011;35354;51.296;16.924;2023-05-10T04:30:50;17.38;;;13.70;;
49458;SDS011;35354;51.296;16.924;2023-05-10T04:33:16;25.67;;;16.42;;
49458;SDS011;35354;51.296;16.924;2023-05-10T04:35:41;15.63;;;12.70;;
49458;SDS011;35354;51.296;16.924;2023-05-10T04:38:06;11.93;;;8.00;;
49458;SDS011;35354;51.296;16.924;2023-05-10T04:40:32;10.98;;;7.32;;
49458;SDS011;35354;51.296;16.924;2023-05-10T04:42:57;10.48;;;7.13;;
49458;SDS011;35354;51.296;16.924;2023-05-10T04:45:22;11.23;;;7.28;;
49458;SDS011;35354;51.296;16.924;2023-05-10T04:47:48;10.82;;;7.80;;
49458;SDS011;35354;51.296;16.924;2023-05-10T04:50:13;10.10;;;7.00;;
49458;SDS011;35354;51.296;16.924;2023-05-10T04:52:38;11.43;;;6.78;;
49458;SDS011;35354;51.296;16.924;2023-05-10T04:55:04;10.77;;;8.00;;
49458;SDS011;35354;51.296;16.924;2023-05-10T04:57:29;13.40;;;7.47;;
49458;SDS011;35354;51.296;16.924;2023-05-10T04:59:55;10.57;;;7.65;;
49458;SDS011;35354;51.296;16.924;2023-05-10T05:02:20;10.35;;;7.38;;
49458;SDS011;35354;51.296;16.924;2023-05-10T05:04:45;14.57;;;6.97;;
49458;SDS011;35354;51.296;16.924;2023-05-10T05:07:11;9.48;;;7.35;;
49458;SDS011;35354;51.296;16.924;2023-05-10T05:09:36;11.63;;;7.10;;
49458;SDS011;35354;51.296;16.924;2023-05-10T05:12:01;12.63;;;7.28;;
49458;SDS011;35354;51.296;16.924;2023-05-10T05:14:27;8.95;;;7.13;;
49458;SDS011;35354;51.296;16.924;2023-05-10T05:16:52;12.18;;;7.03;;
49458;SDS011;35354;51.296;16.924;2023-05-10T05:19:18;9.15;;;7.38;;
49458;SDS011;35354;51.296;16.924;2023-05-10T05:21:43;10.35;;;6.90;;
49458;SDS011;35354;51.296;16.924;2023-05-10T05:24:08;9.50;;;6.63;;
49458;SDS011;35354;51.296;16.924;2023-05-10T05:26:35;8.32;;;6.25;;
49458;SDS011;35354;51.296;16.924;2023-05-10T05:29:00;9.48;;;7.20;;
49458;SDS011;35354;51.296;16.924;2023-05-10T05:31:26;8.23;;;6.40;;
49458;SDS011;35354;51.296;16.924;2023-05-10T05:33:51;8.90;;;6.72;;
49458;SDS011;35354;51.296;16.924;2023-05-10T05:36:17;10.07;;;7.28;;
49458;SDS011;35354;51.296;16.924;2023-05-10T05:38:42;7.80;;;6.38;;
49458;SDS011;35354;51.296;16.924;2023-05-10T05:41:08;8.32;;;6.70;;
49458;SDS011;35354;51.296;16.924;2023-05-10T05:43:33;9.10;;;6.38;;
49458;SDS011;35354;51.296;16.924;2023-05-10T05:45:58;8.55;;;6.07;;
49458;SDS011;35354;51.296;16.924;2023-05-10T05:48:23;13.88;;;6.68;;
49458;SDS011;35354;51.296;16.924;2023-05-10T05:50:49;10.55;;;6.28;;
49458;SDS011;35354;51.296;16.924;2023-05-10T05:53:15;9.18;;;6.32;;
49458;SDS011;35354;51.296;16.924;2023-05-10T05:55:40;9.75;;;6.10;;
49458;SDS011;35354;51.296;16.924;2023-05-10T05:58:19;7.60;;;6.65;;
49458;SDS011;35354;51.296;16.924;2023-05-10T06:00:44;8.43;;;6.18;;
49458;SDS011;35354;51.296;16.924;2023-05-10T06:03:10;8.77;;;6.60;;
49458;SDS011;35354;51.296;16.924;2023-05-10T06:05:35;9.10;;;6.30;;
49458;SDS011;35354;51.296;16.924;2023-05-10T06:08:00;10.52;;;6.90;;
49458;SDS011;35354;51.296;16.924;2023-05-10T06:10:26;9.02;;;6.32;;
49458;SDS011;35354;51.296;16.924;2023-05-10T06:12:51;8.73;;;6.28;;
49458;SDS011;35354;51.296;16.924;2023-05-10T06:15:17;9.25;;;6.78;;
49458;SDS011;35354;51.296;16.924;2023-05-10T06:17:43;9.05;;;6.20;;
49458;SDS011;35354;51.296;16.924;2023-05-10T06:20:09;8.32;;;6.70;;
49458;SDS011;35354;51.296;16.924;2023-05-10T06:22:35;9.88;;;6.32;;
49458;SDS011;35354;51.296;16.924;2023-05-10T06:25:00;6.90;;;5.38;;
49458;SDS011;35354;51.296;16.924;2023-05-10T06:27:26;9.60;;;6.13;;
49458;SDS011;35354;51.296;16.924;2023-05-10T06:29:52;9.52;;;5.82;;
49458;SDS011;35354;51.296;16.924;2023-05-10T06:32:17;8.65;;;5.97;;
49458;SDS011;35354;51.296;16.924;2023-05-10T06:34:42;6.30;;;4.70;;
49458;SDS011;35354;51.296;16.924;2023-05-10T06:37:08;9.27;;;6.03;;
49458;SDS011;35354;51.296;16.924;2023-05-10T06:39:33;8.13;;;5.20;;
49458;SDS011;35354;51.296;16.924;2023-05-10T06:41:59;8.23;;;5.45;;
49458;SDS011;35354;51.296;16.924;2023-05-10T06:44:24;8.80;;;5.38;;
49458;SDS011;35354;51.296;16.924;2023-05-10T06:46:49;6.68;;;5.13;;
49458;SDS011;35354;51.296;16.924;2023-05-10T06:49:16;7.95;;;5.50;;
49458;SDS011;35354;51.296;16.924;2023-05-10T06:51:41;8.63;;;5.25;;
49458;SDS011;35354;51.296;16.924;2023-05-10T06:54:06;7.28;;;4.95;;
49458;SDS011;35354;51.296;16.924;2023-05-10T06:56:32;5.80;;;5.15;;
49458;SDS011;35354;51.296;16.924;2023-05-10T06:58:57;8.10;;;5.03;;
49458;SDS011;35354;51.296;16.924;2023-05-10T07:01:22;6.38;;;4.63;;
49458;SDS011;35354;51.296;16.924;2023-05-10T07:03:48;5.10;;;4.60;;
49458;SDS011;35354;51.296;16.924;2023-05-10T07:06:13;7.05;;;4.88;;
49458;SDS011;35354;51.296;16.924;2023-05-10T07:08:38;7.35;;;5.03;;
49458;SDS011;35354;51.296;16.924;2023-05-10T07:11:04;7.80;;;4.30;;
49458;SDS011;35354;51.296;16.924;2023-05-10T07:13:34;5.03;;;4.47;;
49458;SDS011;35354;51.296;16.924;2023-05-10T07:16:00;4.63;;;4.13;;
49458;SDS011;35354;51.296;16.924;2023-05-10T07:18:27;5.05;;;4.32;;
49458;SDS011;35354;51.296;16.924;2023-05-10T07:20:53;6.35;;;4.30;;
49458;SDS011;35354;51.296;16.924;2023-05-10T07:23:18;4.75;;;4.20;;
49458;SDS011;35354;51.296;16.924;2023-05-10T07:25:45;5.82;;;4.68;;
49458;SDS011;35354;51.296;16.924;2023-05-10T07:28:11;7.38;;;5.13;;
49458;SDS011;35354;51.296;16.924;2023-05-10T07:30:36;7.05;;;4.60;;
49458;SDS011;35354;51.296;16.924;2023-05-10T07:33:02;5.45;;;4.20;;
49458;SDS011;35354;51.296;16.924;2023-05-10T07:35:27;4.82;;;4.43;;
49458;SDS011;35354;51.296;16.924;2023-05-10T07:37:52;5.95;;;4.65;;
49458;SDS011;35354;51.296;16.924;2023-05-10T07:40:18;5.15;;;4.65;;
49458;SDS011;35354;51.296;16.924;2023-05-10T07:42:43;6.97;;;3.88;;
49458;SDS011;35354;51.296;16.924;2023-05-10T07:45:09;10.13;;;4.60;;
49458;SDS011;35354;51.296;16.924;2023-05-10T07:47:34;5.15;;;4.60;;
49458;SDS011;35354;51.296;16.924;2023-05-10T07:50:00;6.03;;;4.45;;
49458;SDS011;35354;51.296;16.924;2023-05-10T07:52:25;5.45;;;4.40;;
49458;SDS011;35354;51.296;16.924;2023-05-10T07:54:51;6.13;;;4.90;;
49458;SDS011;35354;51.296;16.924;2023-05-10T07:57:17;8.10;;;4.90;;
49458;SDS011;35354;51.296;16.924;2023-05-10T07:59:43;7.32;;;4.43;;
49458;SDS011;35354;51.296;16.924;2023-05-10T08:02:09;5.97;;;4.70;;
49458;SDS011;35354;51.296;16.924;2023-05-10T08:04:34;7.70;;;4.88;;
49458;SDS011;35354;51.296;16.924;2023-05-10T08:07:00;8.30;;;4.85;;
49458;SDS011;35354;51.296;16.924;2023-05-10T08:09:25;5.57;;;4.97;;
49458;SDS011;35354;51.296;16.924;2023-05-10T08:11:50;6.38;;;5.38;;
49458;SDS011;35354;51.296;16.924;2023-05-10T08:14:16;5.85;;;4.47;;
49458;SDS011;35354;51.296;16.924;2023-05-10T08:16:41;5.95;;;4.38;;
49458;SDS011;35354;51.296;16.924;2023-05-10T08:19:07;5.53;;;4.20;;
49458;SDS011;35354;51.296;16.924;2023-05-10T08:21:32;8.32;;;3.97;;
49458;SDS011;35354;51.296;16.924;2023-05-10T08:23:57;5.18;;;4.68;;
49458;SDS011;35354;51.296;16.924;2023-05-10T08:26:23;8.18;;;4.60;;
49458;SDS011;35354;51.296;16.924;2023-05-10T08:28:48;6.75;;;4.88;;
49458;SDS011;35354;51.296;16.924;2023-05-10T08:31:14;7.53;;;4.55;;
49458;SDS011;35354;51.296;16.924;2023-05-10T08:33:40;6.55;;;4.38;;
49458;SDS011;35354;51.296;16.924;2023-05-10T08:36:06;5.93;;;4.93;;
49458;SDS011;35354;51.296;16.924;2023-05-10T08:38:31;6.25;;;4.38;;
49458;SDS011;35354;51.296;16.924;2023-05-10T08:40:57;5.82;;;4.57;;
49458;SDS011;35354;51.296;16.924;2023-05-10T08:43:24;6.72;;;4.80;;
49458;SDS011;35354;51.296;16.924;2023-05-10T08:45:53;8.65;;;4.78;;
49458;SDS011;35354;51.296;16.924;2023-05-10T08:48:20;5.80;;;4.70;;
49458;SDS011;35354;51.296;16.924;2023-05-10T08:50:49;7.88;;;4.90;;
49458;SDS011;35354;51.296;16.924;2023-05-10T08:53:18;6.55;;;4.93;;
49458;SDS011;35354;51.296;16.924;2023-05-10T08:55:44;4.70;;;4.15;;
49458;SDS011;35354;51.296;16.924;2023-05-10T08:58:10;6.68;;;4.50;;
49458;SDS011;35354;51.296;16.924;2023-05-10T09:00:36;6.70;;;4.75;;
49458;SDS011;35354;51.296;16.924;2023-05-10T09:03:02;8.65;;;4.80;;
49458;SDS011;35354;51.296;16.924;2023-05-10T09:05:29;6.10;;;4.50;;
49458;SDS011;35354;51.296;16.924;2023-05-10T09:07:54;4.95;;;4.43;;
49458;SDS011;35354;51.296;16.924;2023-05-10T09:10:20;4.68;;;3.78;;
49458;SDS011;35354;51.296;16.924;2023-05-10T09:12:46;5.68;;;4.25;;
49458;SDS011;35354;51.296;16.924;2023-05-10T09:15:14;5.45;;;3.95;;
49458;SDS011;35354;51.296;16.924;2023-05-10T09:17:40;6.57;;;4.75;;
49458;SDS011;35354;51.296;16.924;2023-05-10T09:20:08;5.95;;;4.70;;
49458;SDS011;35354;51.296;16.924;2023-05-10T09:22:34;5.40;;;3.80;;
49458;SDS011;35354;51.296;16.924;2023-05-10T09:25:18;5.68;;;4.20;;
49458;SDS011;35354;51.296;16.924;2023-05-10T09:27:45;5.65;;;4.25;;
49458;SDS011;35354;51.296;16.924;2023-05-10T09:30:32;5.88;;;3.80;;
49458;SDS011;35354;51.296;16.924;2023-05-10T09:32:57;5.72;;;3.40;;
49458;SDS011;35354;51.296;16.924;2023-05-10T09:35:28;4.75;;;4.25;;
49458;SDS011;35354;51.296;16.924;2023-05-10T09:37:56;7.00;;;3.88;;
49458;SDS011;35354;51.296;16.924;2023-05-10T09:40:25;4.95;;;3.20;;
49458;SDS011;35354;51.296;16.924;2023-05-10T09:43:06;5.00;;;3.78;;
49458;SDS011;35354;51.296;16.924;2023-05-10T09:45:32;5.47;;;3.53;;
49458;SDS011;35354;51.296;16.924;2023-05-10T09:47:59;3.47;;;3.17;;
49458;SDS011;35354;51.296;16.924;2023-05-10T09:50:26;8.13;;;3.85;;
49458;SDS011;35354;51.296;16.924;2023-05-10T09:52:53;7.70;;;3.63;;
49458;SDS011;35354;51.296;16.924;2023-05-10T09:55:23;6.10;;;4.00;;
49458;SDS011;35354;51.296;16.924;2023-05-10T09:58:04;8.15;;;4.47;;
49458;SDS011;35354;51.296;16.924;2023-05-10T10:00:35;7.72;;;3.35;;
49458;SDS011;35354;51.296;16.924;2023-05-10T10:03:03;5.18;;;3.65;;
49458;SDS011;35354;51.296;16.924;2023-05-10T10:07:59;8.50;;;4.22;;
49458;SDS011;35354;51.296;16.924;2023-05-10T10:10:25;7.85;;;3.95;;
49458;SDS011;35354;51.296;16.924;2023-05-10T10:12:52;3.92;;;2.90;;
49458;SDS011;35354;51.296;16.924;2023-05-10T10:15:17;5.22;;;3.45;;
49458;SDS011;35354;51.296;16.924;2023-05-10T10:17:43;4.72;;;3.22;;
49458;SDS011;35354;51.296;16.924;2023-05-10T10:20:09;7.47;;;3.65;;
49458;SDS011;35354;51.296;16.924;2023-05-10T10:22:36;3.72;;;3.30;;
49458;SDS011;35354;51.296;16.924;2023-05-10T10:25:02;4.75;;;3.60;;
49458;SDS011;35354;51.296;16.924;2023-05-10T10:36:05;4.78;;;3.50;;
49458;SDS011;35354;51.296;16.924;2023-05-10T10:41:32;7.40;;;4.00;;
49458;SDS011;35354;51.296;16.924;2023-05-10T10:57:49;3.63;;;3.28;;
49458;SDS011;35354;51.296;16.924;2023-05-10T11:05:38;5.60;;;4.18;;
49458;SDS011;35354;51.296;16.924;2023-05-10T11:13:42;5.35;;;3.38;;
49458;SDS011;35354;51.296;16.924;2023-05-10T11:16:12;4.97;;;3.20;;
49458;SDS011;35354;51.296;16.924;2023-05-10T11:21:18;3.17;;;2.88;;
49458;SDS011;35354;51.296;16.924;2023-05-10T11:26:13;4.13;;;3.13;;
49458;SDS011;35354;51.296;16.924;2023-05-10T11:28:45;5.40;;;3.25;;
49458;SDS011;35354;51.296;16.924;2023-05-10T11:31:15;3.47;;;3.17;;
49458;SDS011;35354;51.296;16.924;2023-05-10T11:33:45;3.83;;;3.42;;
49458;SDS011;35354;51.296;16.924;2023-05-10T11:36:15;5.97;;;3.45;;
49458;SDS011;35354;51.296;16.924;2023-05-10T11:38:44;4.95;;;4.03;;
49458;SDS011;35354;51.296;16.924;2023-05-10T11:41:10;5.95;;;3.33;;
49458;SDS011;35354;51.296;16.924;2023-05-10T11:43:37;6.63;;;3.60;;
49458;SDS011;35354;51.296;16.924;2023-05-10T11:46:07;4.45;;;4.05;;
49458;SDS011;35354;51.296;16.924;2023-05-10T11:48:34;4.80;;;3.42;;
49458;SDS011;35354;51.296;16.924;2023-05-10T11:51:00;5.22;;;3.58;;
49458;SDS011;35354;51.296;16.924;2023-05-10T11:53:27;4.80;;;3.53;;
49458;SDS011;35354;51.296;16.924;2023-05-10T11:55:53;5.82;;;3.40;;
49458;SDS011;35354;51.296;16.924;2023-05-10T11:58:18;4.32;;;3.17;;
49458;SDS011;35354;51.296;16.924;2023-05-10T12:00:44;3.72;;;3.35;;
49458;SDS011;35354;51.296;16.924;2023-05-10T12:03:11;4.63;;;3.50;;
49458;SDS011;35354;51.296;16.924;2023-05-10T12:05:36;5.13;;;3.78;;
49458;SDS011;35354;51.296;16.924;2023-05-10T12:08:12;5.20;;;3.10;;
49458;SDS011;35354;51.296;16.924;2023-05-10T12:10:38;3.47;;;3.15;;
49458;SDS011;35354;51.296;16.924;2023-05-10T12:13:04;7.18;;;2.90;;
49458;SDS011;35354;51.296;16.924;2023-05-10T12:15:30;7.85;;;3.42;;
49458;SDS011;35354;51.296;16.924;2023-05-10T12:17:55;4.13;;;2.97;;
49458;SDS011;35354;51.296;16.924;2023-05-10T12:20:22;5.80;;;3.40;;
49458;SDS011;35354;51.296;16.924;2023-05-10T12:22:50;7.25;;;3.53;;
49458;SDS011;35354;51.296;16.924;2023-05-10T12:25:17;3.53;;;3.08;;
49458;SDS011;35354;51.296;16.924;2023-05-10T12:27:56;3.92;;;3.42;;
49458;SDS011;35354;51.296;16.924;2023-05-10T12:32:48;7.57;;;3.42;;
49458;SDS011;35354;51.296;16.924;2023-05-10T12:35:14;3.22;;;2.92;;
49458;SDS011;35354;51.296;16.924;2023-05-10T12:37:41;3.58;;;2.95;;
49458;SDS011;35354;51.296;16.924;2023-05-10T12:40:08;3.67;;;2.97;;
49458;SDS011;35354;51.296;16.924;2023-05-10T12:42:36;4.25;;;3.47;;
49458;SDS011;35354;51.296;16.924;2023-05-10T12:45:02;5.57;;;3.38;;
49458;SDS011;35354;51.296;16.924;2023-05-10T12:47:29;5.72;;;3.42;;
49458;SDS011;35354;51.296;16.924;2023-05-10T12:49:54;4.45;;;3.00;;
49458;SDS011;35354;51.296;16.924;2023-05-10T12:52:20;3.72;;;3.33;;
49458;SDS011;35354;51.296;16.924;2023-05-10T12:54:45;5.45;;;3.08;;
49458;SDS011;35354;51.296;16.924;2023-05-10T12:57:11;8.90;;;3.42;;
49458;SDS011;35354;51.296;16.924;2023-05-10T12:59:38;3.25;;;2.75;;
49458;SDS011;35354;51.296;16.924;2023-05-10T13:02:03;5.13;;;2.90;;
49458;SDS011;35354;51.296;16.924;2023-05-10T13:04:28;5.80;;;3.00;;
49458;SDS011;35354;51.296;16.924;2023-05-10T13:06:54;3.72;;;3.35;;
49458;SDS011;35354;51.296;16.924;2023-05-10T13:09:23;6.22;;;3.10;;
49458;SDS011;35354;51.296;16.924;2023-05-10T13:11:48;4.03;;;3.08;;
49458;SDS011;35354;51.296;16.924;2023-05-10T13:14:14;4.93;;;2.75;;
49458;SDS011;35354;51.296;16.924;2023-05-10T13:16:39;4.35;;;2.63;;
49458;SDS011;35354;51.296;16.924;2023-05-10T13:19:05;3.75;;;3.45;;
49458;SDS011;35354;51.296;16.924;2023-05-10T13:21:30;3.47;;;3.17;;
49458;SDS011;35354;51.296;16.924;2023-05-10T13:23:55;4.82;;;3.17;;
49458;SDS011;35354;51.296;16.924;2023-05-10T13:26:20;4.80;;;2.70;;
49458;SDS011;35354;51.296;16.924;2023-05-10T13:28:46;4.55;;;2.53;;
49458;SDS011;35354;51.296;16.924;2023-05-10T13:31:11;3.22;;;2.78;;
49458;SDS011;35354;51.296;16.924;2023-05-10T13:33:37;4.47;;;3.03;;
49458;SDS011;35354;51.296;16.924;2023-05-10T13:36:02;8.95;;;2.80;;
49458;SDS011;35354;51.296;16.924;2023-05-10T13:38:28;7.10;;;2.90;;
49458;SDS011;35354;51.296;16.924;2023-05-10T13:40:53;3.13;;;2.83;;
49458;SDS011;35354;51.296;16.924;2023-05-10T13:43:18;3.53;;;2.92;;
49458;SDS011;35354;51.296;16.924;2023-05-10T13:45:44;3.03;;;2.38;;
49458;SDS011;35354;51.296;16.924;2023-05-10T13:48:09;5.65;;;2.75;;
49458;SDS011;35354;51.296;16.924;2023-05-10T13:50:35;3.35;;;2.58;;
49458;SDS011;35354;51.296;16.924;2023-05-10T13:53:00;7.80;;;3.00;;
49458;SDS011;35354;51.296;16.924;2023-05-10T13:55:25;4.70;;;2.78;;
49458;SDS011;35354;51.296;16.924;2023-05-10T13:57:51;5.78;;;2.70;;
49458;SDS011;35354;51.296;16.924;2023-05-10T14:00:16;4.20;;;2.70;;
49458;SDS011;35354;51.296;16.924;2023-05-10T14:02:42;4.13;;;2.75;;
49458;SDS011;35354;51.296;16.924;2023-05-10T14:05:07;3.35;;;2.65;;
49458;SDS011;35354;51.296;16.924;2023-05-10T14:07:33;2.47;;;2.20;;
49458;SDS011;35354;51.296;16.924;2023-05-10T14:09:59;3.47;;;2.42;;
49458;SDS011;35354;51.296;16.924;2023-05-10T14:12:25;2.85;;;2.20;;
49458;SDS011;35354;51.296;16.924;2023-05-10T14:14:50;5.57;;;2.92;;
49458;SDS011;35354;51.296;16.924;2023-05-10T14:17:16;5.53;;;2.85;;
49458;SDS011;35354;51.296;16.924;2023-05-10T14:19:41;3.63;;;2.22;;
49458;SDS011;35354;51.296;16.924;2023-05-10T14:22:06;2.90;;;2.60;;
49458;SDS011;35354;51.296;16.924;2023-05-10T14:24:31;3.67;;;2.15;;
49458;SDS011;35354;51.296;16.924;2023-05-10T14:26:57;3.00;;;2.40;;
49458;SDS011;35354;51.296;16.924;2023-05-10T14:29:22;3.58;;;2.53;;
49458;SDS011;35354;51.296;16.924;2023-05-10T14:31:48;10.95;;;2.70;;
49458;SDS011;35354;51.296;16.924;2023-05-10T14:34:13;4.82;;;2.42;;
49458;SDS011;35354;51.296;16.924;2023-05-10T14:36:39;4.63;;;2.50;;
49458;SDS011;35354;51.296;16.924;2023-05-10T14:39:05;3.35;;;2.50;;
49458;SDS011;35354;51.296;16.924;2023-05-10T14:41:31;5.63;;;2.58;;
49458;SDS011;35354;51.296;16.924;2023-05-10T14:43:57;4.78;;;2.83;;
49458;SDS011;35354;51.296;16.924;2023-05-10T14:46:22;4.95;;;2.97;;
49458;SDS011;35354;51.296;16.924;2023-05-10T14:48:47;3.55;;;2.95;;
49458;SDS011;35354;51.296;16.924;2023-05-10T14:51:13;3.28;;;2.25;;
49458;SDS011;35354;51.296;16.924;2023-05-10T14:53:38;2.72;;;2.53;;
49458;SDS011;35354;51.296;16.924;2023-05-10T14:56:03;3.35;;;2.30;;
49458;SDS011;35354;51.296;16.924;2023-05-10T14:58:29;2.40;;;2.22;;
49458;SDS011;35354;51.296;16.924;2023-05-10T15:00:57;5.68;;;2.33;;
49458;SDS011;35354;51.296;16.924;2023-05-10T15:03:23;4.57;;;2.30;;
49458;SDS011;35354;51.296;16.924;2023-05-10T15:05:48;2.60;;;2.40;;
49458;SDS011;35354;51.296;16.924;2023-05-10T15:08:14;4.03;;;2.15;;
49458;SDS011;35354;51.296;16.924;2023-05-10T15:10:39;2.85;;;2.53;;
49458;SDS011;35354;51.296;16.924;2023-05-10T15:13:05;4.60;;;2.60;;
49458;SDS011;35354;51.296;16.924;2023-05-10T15:15:30;4.38;;;2.80;;
49458;SDS011;35354;51.296;16.924;2023-05-10T15:17:55;3.20;;;2.30;;
49458;SDS011;35354;51.296;16.924;2023-05-10T15:20:21;2.40;;;2.20;;
49458;SDS011;35354;51.296;16.924;2023-05-10T15:22:46;3.97;;;2.90;;